sensor_id;sensor_type;location;lat;lon;timestamp;pressure;altitude;pressure_sealevel;temperature;humidity
78485;BME280;67773;50.806;8.776;2023-05-10T00:01:54;98749.09;;;13.69;92.58
78485;BME280;67773;50.806;8.776;2023-05-10T00:04:19;98740.97;;;13.70;92.78
78485;BME280;67773;50.806;8.776;2023-05-10T00:06:45;98737.72;;;13.67;92.53
78485;BME280;67773;50.806;8.776;2023-05-10T00:09:11;98736.97;;;13.65;92.40
78485;BME280;67773;50.806;8.776;2023-05-10T00:11:36;98740.25;;;13.68;92.53
78485;BME280;67773;50.806;8.776;2023-05-10T00:14:01;98741.94;;;13.69;93.23
78485;BME280;67773;50.806;8.776;2023-05-10T00:16:27;98735.25;;;13.64;93.07
78485;BME280;67773;50.806;8.776;2023-05-10T00:18:52;98735.19;;;13.65;92.99
78485;BME280;67773;50.806;8.776;2023-05-10T00:21:17;98721.47;;;13.70;93.05
78485;BME280;67773;50.806;8.776;2023-05-10T00:23:43;98729.72;;;13.67;92.91
78485;BME280;67773;50.806;8.776;2023-05-10T00:26:08;98739.63;;;13.65;93.33
78485;BME280;67773;50.806;8.776;2023-05-10T00:28:33;98733.34;;;13.66;92.90
78485;BME280;67773;50.806;8.776;2023-05-10T00:30:58;98724.38;;;13.67;92.49
78485;BME280;67773;50.806;8.776;2023-05-10T00:33:24;98730.78;;;13.64;93.03
78485;BME280;67773;50.806;8.776;2023-05-10T00:35:49;98738.69;;;13.66;93.00
78485;BME280;67773;50.806;8.776;2023-05-10T00:38:15;98745.59;;;13.79;93.24
78485;BME280;67773;50.806;8.776;2023-05-10T00:40:40;98742.41;;;13.85;91.77
78485;BME280;67773;50.806;8.776;2023-05-10T00:43:06;98747.41;;;13.68;89.79
78485;BME280;67773;50.806;8.776;2023-05-10T00:45:32;98744.91;;;13.31;87.61
78485;BME280;67773;50.806;8.776;2023-05-10T00:48:00;98742.41;;;13.06;88.38
78485;BME280;67773;50.806;8.776;2023-05-10T00:50:27;98750.69;;;12.90;87.99
78485;BME280;67773;50.806;8.776;2023-05-10T00:52:53;98753.81;;;12.60;88.26
78485;BME280;67773;50.806;8.776;2023-05-10T00:55:18;98759.03;;;12.37;88.43
78485;BME280;67773;50.806;8.776;2023-05-10T00:57:44;98765.63;;;12.45;88.88
78485;BME280;67773;50.806;8.776;2023-05-10T01:00:10;98759.75;;;12.39;89.75
78485;BME280;67773;50.806;8.776;2023-05-10T01:02:36;98761.69;;;12.37;90.50
78485;BME280;67773;50.806;8.776;2023-05-10T01:05:02;98767.78;;;12.27;89.74
78485;BME280;67773;50.806;8.776;2023-05-10T01:07:31;98763.13;;;12.30;90.91
78485;BME280;67773;50.806;8.776;2023-05-10T01:09:57;98763.56;;;12.24;90.52
78485;BME280;67773;50.806;8.776;2023-05-10T01:12:22;98761.84;;;12.23;90.85
78485;BME280;67773;50.806;8.776;2023-05-10T01:14:48;98765.16;;;12.14;89.78
78485;BME280;67773;50.806;8.776;2023-05-10T01:17:14;98769.53;;;12.15;90.84
78485;BME280;67773;50.806;8.776;2023-05-10T01:19:40;98772.41;;;12.12;90.84
78485;BME280;67773;50.806;8.776;2023-05-10T01:32:55;98776.03;;;12.11;90.86
78485;BME280;67773;50.806;8.776;2023-05-10T01:37:59;98782.53;;;12.20;91.32
78485;BME280;67773;50.806;8.776;2023-05-10T01:40:39;98783.78;;;12.14;91.83
78485;BME280;67773;50.806;8.776;2023-05-10T01:43:08;98776.34;;;12.06;91.24
78485;BME280;67773;50.806;8.776;2023-05-10T01:45:42;98780.63;;;12.09;91.58
78485;BME280;67773;50.806;8.776;2023-05-10T01:48:10;98784.34;;;12.06;92.01
78485;BME280;67773;50.806;8.776;2023-05-10T01:50:38;98783.09;;;11.99;91.78
78485;BME280;67773;50.806;8.776;2023-05-10T01:53:07;98785.41;;;12.04;91.45
78485;BME280;67773;50.806;8.776;2023-05-10T01:55:39;98791.91;;;12.00;91.33
78485;BME280;67773;50.806;8.776;2023-05-10T01:58:10;98790.84;;;12.02;92.16
78485;BME280;67773;50.806;8.776;2023-05-10T02:00:43;98791.91;;;12.00;92.33
78485;BME280;67773;50.806;8.776;2023-05-10T02:03:10;98801.38;;;12.04;92.15
78485;BME280;67773;50.806;8.776;2023-05-10T02:05:36;98794.66;;;11.98;91.79
78485;BME280;67773;50.806;8.776;2023-05-10T02:08:05;98803.88;;;12.18;91.48
78485;BME280;67773;50.806;8.776;2023-05-10T02:10:32;98798.47;;;12.20;92.40
78485;BME280;67773;50.806;8.776;2023-05-10T02:12:58;98805.63;;;12.06;91.21
78485;BME280;67773;50.806;8.776;2023-05-10T02:15:25;98792.13;;;11.97;92.18
78485;BME280;67773;50.806;8.776;2023-05-10T02:17:52;98802.53;;;12.12;91.70
78485;BME280;67773;50.806;8.776;2023-05-10T02:20:20;98813.59;;;12.06;92.27
78485;BME280;67773;50.806;8.776;2023-05-10T02:22:49;98810.41;;;12.01;91.70
78485;BME280;67773;50.806;8.776;2023-05-10T02:25:18;98816.59;;;12.02;92.65
78485;BME280;67773;50.806;8.776;2023-05-10T02:27:44;98817.84;;;11.96;92.46
78485;BME280;67773;50.806;8.776;2023-05-10T02:30:10;98822.13;;;11.99;92.62
78485;BME280;67773;50.806;8.776;2023-05-10T02:32:36;98819.34;;;11.88;91.20
78485;BME280;67773;50.806;8.776;2023-05-10T02:35:03;98822.78;;;11.90;92.17
78485;BME280;67773;50.806;8.776;2023-05-10T02:37:29;98826.78;;;11.95;91.98
78485;BME280;67773;50.806;8.776;2023-05-10T02:39:55;98828.06;;;12.02;92.31
78485;BME280;67773;50.806;8.776;2023-05-10T02:42:27;98828.38;;;11.98;91.67
78485;BME280;67773;50.806;8.776;2023-05-10T02:44:54;98825.94;;;11.95;91.82
78485;BME280;67773;50.806;8.776;2023-05-10T02:47:21;98834.03;;;11.93;91.12
78485;BME280;67773;50.806;8.776;2023-05-10T02:49:47;98832.97;;;11.96;91.88
78485;BME280;67773;50.806;8.776;2023-05-10T02:52:16;98830.53;;;11.80;91.39
78485;BME280;67773;50.806;8.776;2023-05-10T02:54:45;98837.34;;;11.84;91.70
78485;BME280;67773;50.806;8.776;2023-05-10T02:57:16;98826.16;;;11.79;91.97
78485;BME280;67773;50.806;8.776;2023-05-10T02:59:44;98834.03;;;11.80;91.04
78485;BME280;67773;50.806;8.776;2023-05-10T03:02:12;98828.28;;;11.87;91.50
78485;BME280;67773;50.806;8.776;2023-05-10T03:04:37;98829.13;;;11.87;91.56
78485;BME280;67773;50.806;8.776;2023-05-10T03:07:03;98825.31;;;11.78;91.94
78485;BME280;67773;50.806;8.776;2023-05-10T03:09:29;98828.63;;;11.82;91.99
78485;BME280;67773;50.806;8.776;2023-05-10T03:12:23;98828.25;;;11.74;92.11
78485;BME280;67773;50.806;8.776;2023-05-10T03:17:47;98834.66;;;11.71;92.03
78485;BME280;67773;50.806;8.776;2023-05-10T03:20:25;98824.44;;;11.65;92.00
78485;BME280;67773;50.806;8.776;2023-05-10T03:22:55;98836.97;;;11.76;91.53
78485;BME280;67773;50.806;8.776;2023-05-10T03:25:21;98837.72;;;11.65;92.07
78485;BME280;67773;50.806;8.776;2023-05-10T03:27:48;98843.59;;;11.70;92.40
78485;BME280;67773;50.806;8.776;2023-05-10T03:30:13;98850.38;;;11.74;91.78
78485;BME280;67773;50.806;8.776;2023-05-10T03:32:39;98840.47;;;11.64;91.70
78485;BME280;67773;50.806;8.776;2023-05-10T03:35:11;98843.03;;;11.65;91.69
78485;BME280;67773;50.806;8.776;2023-05-10T03:37:38;98852.69;;;11.66;92.12
78485;BME280;67773;50.806;8.776;2023-05-10T03:40:04;98864.78;;;11.84;91.97
78485;BME280;67773;50.806;8.776;2023-05-10T03:42:29;98856.44;;;11.76;92.39
78485;BME280;67773;50.806;8.776;2023-05-10T03:44:55;98855.47;;;11.77;92.68
78485;BME280;67773;50.806;8.776;2023-05-10T03:47:20;98860.63;;;11.80;92.50
78485;BME280;67773;50.806;8.776;2023-05-10T03:49:46;98868.47;;;11.69;91.46
78485;BME280;67773;50.806;8.776;2023-05-10T03:52:11;98873.56;;;11.60;91.55
78485;BME280;67773;50.806;8.776;2023-05-10T03:54:37;98870.38;;;11.67;92.19
78485;BME280;67773;50.806;8.776;2023-05-10T03:57:02;98870.56;;;11.64;91.32
78485;BME280;67773;50.806;8.776;2023-05-10T03:59:28;98873.22;;;11.64;91.91
78485;BME280;67773;50.806;8.776;2023-05-10T04:01:53;98872.38;;;11.64;91.83
78485;BME280;67773;50.806;8.776;2023-05-10T04:04:18;98878.44;;;11.66;91.69
78485;BME280;67773;50.806;8.776;2023-05-10T04:06:46;98870.78;;;11.61;91.57
78485;BME280;67773;50.806;8.776;2023-05-10T04:09:11;98871.41;;;11.65;91.43
78485;BME280;67773;50.806;8.776;2023-05-10T04:11:36;98869.59;;;11.52;91.28
78485;BME280;67773;50.806;8.776;2023-05-10T04:14:02;98868.97;;;11.49;91.34
78485;BME280;67773;50.806;8.776;2023-05-10T04:16:27;98871.63;;;11.49;92.50
78485;BME280;67773;50.806;8.776;2023-05-10T04:18:53;98876.50;;;11.55;92.06
78485;BME280;67773;50.806;8.776;2023-05-10T04:21:18;98878.66;;;11.63;92.40
78485;BME280;67773;50.806;8.776;2023-05-10T04:23:43;98887.81;;;11.59;92.22
78485;BME280;67773;50.806;8.776;2023-05-10T04:26:08;98885.66;;;11.64;91.64
78485;BME280;67773;50.806;8.776;2023-05-10T04:28:34;98891.22;;;11.73;92.29
78485;BME280;67773;50.806;8.776;2023-05-10T04:31:09;98897.28;;;11.75;92.16
78485;BME280;67773;50.806;8.776;2023-05-10T04:33:35;98895.47;;;11.76;91.95
78485;BME280;67773;50.806;8.776;2023-05-10T04:36:02;98892.53;;;11.80;91.45
78485;BME280;67773;50.806;8.776;2023-05-10T04:38:28;98878.03;;;11.72;91.73
78485;BME280;67773;50.806;8.776;2023-05-10T04:40:53;98899.09;;;11.75;91.56
78485;BME280;67773;50.806;8.776;2023-05-10T04:43:19;98886.78;;;11.87;91.83
78485;BME280;67773;50.806;8.776;2023-05-10T04:45:44;98899.13;;;11.88;91.11
78485;BME280;67773;50.806;8.776;2023-05-10T04:48:09;98902.22;;;11.81;91.29
78485;BME280;67773;50.806;8.776;2023-05-10T04:50:35;98907.44;;;11.83;91.13
78485;BME280;67773;50.806;8.776;2023-05-10T04:53:00;98904.66;;;11.84;90.72
78485;BME280;67773;50.806;8.776;2023-05-10T04:55:26;98899.91;;;11.90;90.48
78485;BME280;67773;50.806;8.776;2023-05-10T04:57:52;98910.53;;;11.90;90.87
78485;BME280;67773;50.806;8.776;2023-05-10T05:00:18;98898.72;;;11.94;90.57
78485;BME280;67773;50.806;8.776;2023-05-10T05:02:44;98911.91;;;11.95;89.81
78485;BME280;67773;50.806;8.776;2023-05-10T05:05:10;98911.06;;;11.95;90.60
78485;BME280;67773;50.806;8.776;2023-05-10T05:07:36;98914.16;;;11.89;90.21
78485;BME280;67773;50.806;8.776;2023-05-10T05:10:01;98924.25;;;11.96;90.84
78485;BME280;67773;50.806;8.776;2023-05-10T05:12:26;98924.69;;;12.03;89.83
78485;BME280;67773;50.806;8.776;2023-05-10T05:14:51;98928.63;;;12.10;90.61
78485;BME280;67773;50.806;8.776;2023-05-10T05:17:17;98930.00;;;12.16;90.70
78485;BME280;67773;50.806;8.776;2023-05-10T05:19:42;98940.88;;;12.12;90.43
78485;BME280;67773;50.806;8.776;2023-05-10T05:22:07;98926.81;;;12.10;90.19
78485;BME280;67773;50.806;8.776;2023-05-10T05:24:36;98937.88;;;12.17;90.65
78485;BME280;67773;50.806;8.776;2023-05-10T05:27:05;98942.78;;;12.23;90.68
78485;BME280;67773;50.806;8.776;2023-05-10T05:29:31;98945.09;;;12.28;91.34
78485;BME280;67773;50.806;8.776;2023-05-10T05:31:56;98949.38;;;12.30;90.63
78485;BME280;67773;50.806;8.776;2023-05-10T05:34:21;98949.38;;;12.30;89.59
78485;BME280;67773;50.806;8.776;2023-05-10T05:36:47;98946.81;;;12.29;89.95
78485;BME280;67773;50.806;8.776;2023-05-10T05:39:13;98954.91;;;12.27;90.70
78485;BME280;67773;50.806;8.776;2023-05-10T05:41:39;98960.78;;;12.32;90.01
78485;BME280;67773;50.806;8.776;2023-05-10T05:44:04;98957.88;;;12.35;88.59
78485;BME280;67773;50.806;8.776;2023-05-10T05:46:30;98956.19;;;12.34;88.15
78485;BME280;67773;50.806;8.776;2023-05-10T05:48:55;98955.66;;;12.42;89.07
78485;BME280;67773;50.806;8.776;2023-05-10T05:51:21;98963.19;;;12.48;89.05
78485;BME280;67773;50.806;8.776;2023-05-10T05:53:46;98956.25;;;12.71;88.01
78485;BME280;67773;50.806;8.776;2023-05-10T05:56:11;98964.03;;;12.74;87.89
78485;BME280;67773;50.806;8.776;2023-05-10T05:58:37;98965.19;;;12.70;87.54
78485;BME280;67773;50.806;8.776;2023-05-10T06:01:02;98963.50;;;12.69;87.39
78485;BME280;67773;50.806;8.776;2023-05-10T06:03:27;98969.47;;;12.73;87.76
78485;BME280;67773;50.806;8.776;2023-05-10T06:05:52;98964.69;;;12.65;87.32
78485;BME280;67773;50.806;8.776;2023-05-10T06:08:18;98973.63;;;12.64;86.76
78485;BME280;67773;50.806;8.776;2023-05-10T06:10:43;98974.50;;;12.64;86.93
78485;BME280;67773;50.806;8.776;2023-05-10T06:13:12;98971.94;;;12.63;87.28
78485;BME280;67773;50.806;8.776;2023-05-10T06:15:38;98970.44;;;12.71;87.02
78485;BME280;67773;50.806;8.776;2023-05-10T06:18:03;98975.94;;;12.81;87.58
78485;BME280;67773;50.806;8.776;2023-05-10T06:20:28;98977.88;;;12.79;87.71
78485;BME280;67773;50.806;8.776;2023-05-10T06:22:56;98980.41;;;12.93;86.55
78485;BME280;67773;50.806;8.776;2023-05-10T06:25:21;98981.88;;;12.97;87.85
78485;BME280;67773;50.806;8.776;2023-05-10T06:27:47;98980.19;;;12.96;85.92
78485;BME280;67773;50.806;8.776;2023-05-10T06:30:12;98973.97;;;13.09;85.52
78485;BME280;67773;50.806;8.776;2023-05-10T06:32:39;98976.44;;;12.99;85.10
78485;BME280;67773;50.806;8.776;2023-05-10T06:35:05;98987.88;;;12.88;86.22
78485;BME280;67773;50.806;8.776;2023-05-10T06:37:31;98988.59;;;12.90;86.29
78485;BME280;67773;50.806;8.776;2023-05-10T06:39:56;98990.41;;;13.03;85.44
78485;BME280;67773;50.806;8.776;2023-05-10T06:42:21;98989.72;;;13.12;85.62
78485;BME280;67773;50.806;8.776;2023-05-10T06:44:47;98992.38;;;13.12;84.47
78485;BME280;67773;50.806;8.776;2023-05-10T06:47:14;98993.59;;;13.08;85.27
78485;BME280;67773;50.806;8.776;2023-05-10T06:49:39;98986.78;;;13.04;85.48
78485;BME280;67773;50.806;8.776;2023-05-10T06:52:05;98997.53;;;13.02;86.23
78485;BME280;67773;50.806;8.776;2023-05-10T06:54:30;99001.50;;;12.96;85.93
78485;BME280;67773;50.806;8.776;2023-05-10T06:56:55;99006.09;;;12.94;86.97
78485;BME280;67773;50.806;8.776;2023-05-10T06:59:21;98994.00;;;13.01;86.42
78485;BME280;67773;50.806;8.776;2023-05-10T07:01:47;99006.59;;;12.99;86.35
78485;BME280;67773;50.806;8.776;2023-05-10T07:04:12;99002.97;;;13.00;86.66
78485;BME280;67773;50.806;8.776;2023-05-10T07:06:38;99000.09;;;13.04;87.16
78485;BME280;67773;50.806;8.776;2023-05-10T07:09:04;99001.38;;;12.98;87.94
78485;BME280;67773;50.806;8.776;2023-05-10T07:11:29;99015.78;;;12.95;87.98
78485;BME280;67773;50.806;8.776;2023-05-10T07:13:54;99016.50;;;12.97;88.00
78485;BME280;67773;50.806;8.776;2023-05-10T07:16:19;99016.19;;;12.89;87.81
78485;BME280;67773;50.806;8.776;2023-05-10T07:18:46;99018.47;;;12.83;88.53
78485;BME280;67773;50.806;8.776;2023-05-10T07:21:11;99019.81;;;12.88;88.64
78485;BME280;67773;50.806;8.776;2023-05-10T07:23:37;99022.72;;;12.85;88.33
78485;BME280;67773;50.806;8.776;2023-05-10T07:26:02;99029.94;;;12.96;87.72
78485;BME280;67773;50.806;8.776;2023-05-10T07:28:27;99031.84;;;13.07;88.08
78485;BME280;67773;50.806;8.776;2023-05-10T07:30:53;99021.91;;;13.21;87.55
78485;BME280;67773;50.806;8.776;2023-05-10T07:33:18;99019.25;;;13.34;86.45
78485;BME280;67773;50.806;8.776;2023-05-10T07:35:43;99021.56;;;13.63;86.31
78485;BME280;67773;50.806;8.776;2023-05-10T07:38:09;99027.44;;;13.68;84.63
78485;BME280;67773;50.806;8.776;2023-05-10T07:40:36;99031.13;;;14.13;84.08
78485;BME280;67773;50.806;8.776;2023-05-10T07:43:01;99035.47;;;14.03;82.23
78485;BME280;67773;50.806;8.776;2023-05-10T07:45:27;99029.13;;;14.28;81.78
78485;BME280;67773;50.806;8.776;2023-05-10T07:47:52;99024.75;;;14.38;80.48
78485;BME280;67773;50.806;8.776;2023-05-10T07:50:18;99033.09;;;14.68;81.07
78485;BME280;67773;50.806;8.776;2023-05-10T07:52:44;99027.28;;;14.75;78.54
78485;BME280;67773;50.806;8.776;2023-05-10T07:55:09;99030.94;;;14.96;79.28
78485;BME280;67773;50.806;8.776;2023-05-10T07:57:35;99031.44;;;15.01;79.00
78485;BME280;67773;50.806;8.776;2023-05-10T08:00:00;99029.50;;;14.81;78.18
78485;BME280;67773;50.806;8.776;2023-05-10T08:02:25;99036.59;;;14.58;78.65
78485;BME280;67773;50.806;8.776;2023-05-10T08:04:51;99042.06;;;14.45;80.25
78485;BME280;67773;50.806;8.776;2023-05-10T08:07:17;99039.47;;;14.43;80.46
78485;BME280;67773;50.806;8.776;2023-05-10T08:09:42;99040.75;;;14.51;79.10
78485;BME280;67773;50.806;8.776;2023-05-10T08:12:07;99042.00;;;14.34;79.54
78485;BME280;67773;50.806;8.776;2023-05-10T08:14:33;99048.72;;;14.15;81.05
78485;BME280;67773;50.806;8.776;2023-05-10T08:16:58;99054.41;;;14.11;81.16
78485;BME280;67773;50.806;8.776;2023-05-10T08:19:23;99052.59;;;14.11;81.94
78485;BME280;67773;50.806;8.776;2023-05-10T08:34:03;99055.97;;;15.06;79.38
78485;BME280;67773;50.806;8.776;2023-05-10T08:36:29;99047.19;;;15.38;76.84
78485;BME280;67773;50.806;8.776;2023-05-10T08:38:55;99049.22;;;15.79;76.91
78485;BME280;67773;50.806;8.776;2023-05-10T08:41:20;99045.56;;;16.33;73.74
78485;BME280;67773;50.806;8.776;2023-05-10T08:43:47;99046.84;;;16.50;72.40
78485;BME280;67773;50.806;8.776;2023-05-10T08:46:16;99042.34;;;16.71;71.96
78485;BME280;67773;50.806;8.776;2023-05-10T08:48:44;99042.69;;;16.45;71.09
78485;BME280;67773;50.806;8.776;2023-05-10T08:51:11;99055.38;;;16.23;71.79
78485;BME280;67773;50.806;8.776;2023-05-10T08:53:38;99051.13;;;16.41;72.17
78485;BME280;67773;50.806;8.776;2023-05-10T08:56:04;99045.13;;;16.90;70.76
78485;BME280;67773;50.806;8.776;2023-05-10T08:58:29;99053.34;;;16.98;69.57
78485;BME280;67773;50.806;8.776;2023-05-10T09:00:56;99051.00;;;17.55;67.34
78485;BME280;67773;50.806;8.776;2023-05-10T09:03:22;99053.25;;;18.09;65.07
78485;BME280;67773;50.806;8.776;2023-05-10T09:05:48;99049.72;;;18.38;61.57
78485;BME280;67773;50.806;8.776;2023-05-10T09:08:14;99061.44;;;18.17;61.49
78485;BME280;67773;50.806;8.776;2023-05-10T09:10:42;99063.97;;;18.00;63.54
78485;BME280;67773;50.806;8.776;2023-05-10T09:13:10;99059.91;;;18.25;61.68
78485;BME280;67773;50.806;8.776;2023-05-10T09:15:36;99054.53;;;18.25;63.58
78485;BME280;67773;50.806;8.776;2023-05-10T09:18:02;99067.00;;;17.26;65.13
78485;BME280;67773;50.806;8.776;2023-05-10T09:20:27;99071.16;;;16.99;65.82
78485;BME280;67773;50.806;8.776;2023-05-10T09:22:53;99068.91;;;17.05;66.45
78485;BME280;67773;50.806;8.776;2023-05-10T09:25:19;99067.84;;;17.26;66.30
78485;BME280;67773;50.806;8.776;2023-05-10T09:27:46;99075.91;;;17.26;65.61
78485;BME280;67773;50.806;8.776;2023-05-10T09:30:28;99081.22;;;17.47;67.94
78485;BME280;67773;50.806;8.776;2023-05-10T09:32:56;99078.72;;;16.94;66.52
78485;BME280;67773;50.806;8.776;2023-05-10T09:35:23;99081.41;;;16.73;67.63
78485;BME280;67773;50.806;8.776;2023-05-10T09:37:51;99087.69;;;17.45;67.10
78485;BME280;67773;50.806;8.776;2023-05-10T09:40:23;99086.03;;;17.53;63.41
78485;BME280;67773;50.806;8.776;2023-05-10T09:42:59;99078.34;;;17.70;64.17
78485;BME280;67773;50.806;8.776;2023-05-10T09:45:26;99087.56;;;17.46;64.20
78485;BME280;67773;50.806;8.776;2023-05-10T09:47:52;99081.56;;;17.23;64.89
78485;BME280;67773;50.806;8.776;2023-05-10T09:50:19;99095.19;;;17.11;66.59
78485;BME280;67773;50.806;8.776;2023-05-10T09:52:52;99099.03;;;16.97;66.60
78485;BME280;67773;50.806;8.776;2023-05-10T09:55:22;99090.84;;;16.57;67.58
78485;BME280;67773;50.806;8.776;2023-05-10T09:58:01;99095.38;;;16.56;70.02
78485;BME280;67773;50.806;8.776;2023-05-10T10:00:27;99102.63;;;15.69;73.94
78485;BME280;67773;50.806;8.776;2023-05-10T10:02:58;99121.47;;;15.12;77.38
78485;BME280;67773;50.806;8.776;2023-05-10T10:05:30;99119.66;;;14.31;80.93
78485;BME280;67773;50.806;8.776;2023-05-10T10:08:00;99123.88;;;13.98;82.99
78485;BME280;67773;50.806;8.776;2023-05-10T10:10:26;99133.50;;;13.51;85.24
78485;BME280;67773;50.806;8.776;2023-05-10T10:12:52;99128.63;;;13.45;85.87
78485;BME280;67773;50.806;8.776;2023-05-10T10:15:18;99130.41;;;13.57;87.56
78485;BME280;67773;50.806;8.776;2023-05-10T10:17:45;99134.19;;;13.79;88.49
78485;BME280;67773;50.806;8.776;2023-05-10T10:20:10;99131.28;;;14.06;88.44
78485;BME280;67773;50.806;8.776;2023-05-10T10:22:36;99134.78;;;14.19;87.64
78485;BME280;67773;50.806;8.776;2023-05-10T10:25:02;99126.22;;;14.38;87.07
78485;BME280;67773;50.806;8.776;2023-05-10T10:35:30;99125.47;;;15.40;82.62
78485;BME280;67773;50.806;8.776;2023-05-10T10:37:56;99122.47;;;15.67;80.87
78485;BME280;67773;50.806;8.776;2023-05-10T10:40:27;99123.38;;;15.88;81.81
78485;BME280;67773;50.806;8.776;2023-05-10T10:42:56;99120.06;;;16.07;79.85
78485;BME280;67773;50.806;8.776;2023-05-10T10:45:23;99114.34;;;16.00;78.00
78485;BME280;67773;50.806;8.776;2023-05-10T10:47:54;99120.72;;;15.88;78.04
78485;BME280;67773;50.806;8.776;2023-05-10T10:50:45;99121.31;;;16.56;74.33
78485;BME280;67773;50.806;8.776;2023-05-10T10:53:11;99109.31;;;17.13;73.15
78485;BME280;67773;50.806;8.776;2023-05-10T10:55:46;99113.44;;;16.96;74.97
78485;BME280;67773;50.806;8.776;2023-05-10T10:58:29;99111.56;;;16.34;74.18
78485;BME280;67773;50.806;8.776;2023-05-10T11:01:10;99117.44;;;15.84;74.53
78485;BME280;67773;50.806;8.776;2023-05-10T11:03:35;99115.28;;;15.45;75.94
78485;BME280;67773;50.806;8.776;2023-05-10T11:06:00;99110.66;;;15.24;78.95
78485;BME280;67773;50.806;8.776;2023-05-10T11:08:34;99120.84;;;14.97;79.13
78485;BME280;67773;50.806;8.776;2023-05-10T11:11:06;99125.00;;;14.66;79.36
78485;BME280;67773;50.806;8.776;2023-05-10T11:13:46;99122.38;;;14.42;82.67
78485;BME280;67773;50.806;8.776;2023-05-10T11:16:15;99129.75;;;14.14;86.48
78485;BME280;67773;50.806;8.776;2023-05-10T11:19:12;99129.03;;;14.12;87.76
78485;BME280;67773;50.806;8.776;2023-05-10T11:21:51;99130.94;;;14.58;87.65
78485;BME280;67773;50.806;8.776;2023-05-10T11:24:22;99128.56;;;14.78;84.36
78485;BME280;67773;50.806;8.776;2023-05-10T11:26:50;99122.38;;;14.88;84.10
78485;BME280;67773;50.806;8.776;2023-05-10T11:29:15;99117.56;;;15.16;83.60
78485;BME280;67773;50.806;8.776;2023-05-10T11:31:44;99126.44;;;15.27;81.48
78485;BME280;67773;50.806;8.776;2023-05-10T11:34:11;99126.56;;;15.82;79.86
78485;BME280;67773;50.806;8.776;2023-05-10T11:36:37;99125.41;;;17.74;74.52
78485;BME280;67773;50.806;8.776;2023-05-10T11:39:04;99115.25;;;19.87;65.41
78485;BME280;67773;50.806;8.776;2023-05-10T11:41:30;99126.22;;;18.72;67.44
78485;BME280;67773;50.806;8.776;2023-05-10T11:43:56;99130.44;;;17.67;68.96
78485;BME280;67773;50.806;8.776;2023-05-10T11:46:25;99134.34;;;16.60;73.31
78485;BME280;67773;50.806;8.776;2023-05-10T11:48:53;99136.59;;;16.12;77.21
78485;BME280;67773;50.806;8.776;2023-05-10T11:51:24;99133.50;;;15.73;75.93
78485;BME280;67773;50.806;8.776;2023-05-10T11:53:52;99133.75;;;15.25;78.88
78485;BME280;67773;50.806;8.776;2023-05-10T11:56:17;99146.44;;;14.88;81.18
78485;BME280;67773;50.806;8.776;2023-05-10T11:58:42;99144.13;;;14.84;81.71
78485;BME280;67773;50.806;8.776;2023-05-10T12:01:08;99142.41;;;14.71;81.86
78485;BME280;67773;50.806;8.776;2023-05-10T12:03:35;99151.72;;;14.66;82.00
78485;BME280;67773;50.806;8.776;2023-05-10T12:06:01;99154.56;;;14.87;84.18
78485;BME280;67773;50.806;8.776;2023-05-10T12:08:28;99153.44;;;15.24;83.04
78485;BME280;67773;50.806;8.776;2023-05-10T12:11:05;99145.16;;;15.50;78.29
78485;BME280;67773;50.806;8.776;2023-05-10T12:13:30;99148.09;;;15.80;77.61
78485;BME280;67773;50.806;8.776;2023-05-10T12:15:59;99147.13;;;15.81;77.98
78485;BME280;67773;50.806;8.776;2023-05-10T12:18:24;99153.22;;;15.61;77.91
78485;BME280;67773;50.806;8.776;2023-05-10T12:20:52;99164.03;;;15.48;80.08
78485;BME280;67773;50.806;8.776;2023-05-10T12:23:19;99160.88;;;15.43;78.01
78485;BME280;67773;50.806;8.776;2023-05-10T12:25:45;99160.16;;;15.64;77.51
78485;BME280;67773;50.806;8.776;2023-05-10T12:28:10;99158.34;;;15.75;77.21
78485;BME280;67773;50.806;8.776;2023-05-10T12:30:36;99164.56;;;16.19;78.71
78485;BME280;67773;50.806;8.776;2023-05-10T12:33:07;99163.41;;;16.33;73.69
78485;BME280;67773;50.806;8.776;2023-05-10T12:35:33;99161.25;;;16.59;72.08
78485;BME280;67773;50.806;8.776;2023-05-10T12:38:25;99169.53;;;16.56;70.60
78485;BME280;67773;50.806;8.776;2023-05-10T12:40:51;99169.72;;;16.75;72.20
78485;BME280;67773;50.806;8.776;2023-05-10T12:43:16;99175.91;;;16.43;72.03
78485;BME280;67773;50.806;8.776;2023-05-10T12:45:41;99174.00;;;15.91;73.69
78485;BME280;67773;50.806;8.776;2023-05-10T12:48:06;99176.81;;;15.78;74.06
78485;BME280;67773;50.806;8.776;2023-05-10T12:50:32;99184.56;;;15.93;74.77
78485;BME280;67773;50.806;8.776;2023-05-10T12:52:57;99184.34;;;15.96;74.65
78485;BME280;67773;50.806;8.776;2023-05-10T12:55:22;99200.28;;;15.75;75.50
78485;BME280;67773;50.806;8.776;2023-05-10T12:57:48;99196.72;;;15.52;76.24
78485;BME280;67773;50.806;8.776;2023-05-10T13:00:13;99197.22;;;15.35;75.53
78485;BME280;67773;50.806;8.776;2023-05-10T13:02:39;99203.00;;;15.17;76.51
78485;BME280;67773;50.806;8.776;2023-05-10T13:05:05;99212.09;;;15.04;77.96
78485;BME280;67773;50.806;8.776;2023-05-10T13:07:30;99213.91;;;15.03;76.22
78485;BME280;67773;50.806;8.776;2023-05-10T13:09:55;99218.06;;;14.72;76.51
78485;BME280;67773;50.806;8.776;2023-05-10T13:12:21;99210.69;;;14.52;76.50
78485;BME280;67773;50.806;8.776;2023-05-10T13:14:46;99218.94;;;14.36;76.75
78485;BME280;67773;50.806;8.776;2023-05-10T13:17:11;99209.66;;;14.65;75.92
78485;BME280;67773;50.806;8.776;2023-05-10T13:19:37;99214.91;;;14.78;76.15
78485;BME280;67773;50.806;8.776;2023-05-10T13:22:02;99225.75;;;14.88;75.27
78485;BME280;67773;50.806;8.776;2023-05-10T13:24:28;99221.22;;;15.01;77.58
78485;BME280;67773;50.806;8.776;2023-05-10T13:26:53;99216.06;;;14.98;73.33
78485;BME280;67773;50.806;8.776;2023-05-10T13:29:18;99203.38;;;15.13;72.75
78485;BME280;67773;50.806;8.776;2023-05-10T13:31:44;99208.03;;;15.44;74.54
78485;BME280;67773;50.806;8.776;2023-05-10T13:34:09;99201.16;;;15.75;70.65
78485;BME280;67773;50.806;8.776;2023-05-10T13:36:35;99201.06;;;16.20;71.31